sensor_id;sensor_type;location;lat;lon;timestamp;temperature;humidity
36322;DHT22;23564;48.290;11.460;2022-07-10T00:01:05;17.40;99.90
36322;DHT22;23564;48.290;11.460;2022-07-10T00:03:30;17.40;99.90
36322;DHT22;23564;48.290;11.460;2022-07-10T00:05:56;17.40;99.90
36322;DHT22;23564;48.290;11.460;2022-07-10T00:08:22;17.30;99.90
36322;DHT22;23564;48.290;11.460;2022-07-10T00:10:47;17.30;99.90
36322;DHT22;23564;48.290;11.460;2022-07-10T00:13:13;17.20;99.90
36322;DHT22;23564;48.290;11.460;2022-07-10T00:15:38;17.20;99.90
36322;DHT22;23564;48.290;11.460;2022-07-10T00:18:05;17.20;99.90
36322;DHT22;23564;48.290;11.460;2022-07-10T00:20:30;17.20;99.90
36322;DHT22;23564;48.290;11.460;2022-07-10T00:22:56;17.20;99.90
36322;DHT22;23564;48.290;11.460;2022-07-10T00:25:21;17.10;99.90
36322;DHT22;23564;48.290;11.460;2022-07-10T00:27:47;17.00;99.90
36322;DHT22;23564;48.290;11.460;2022-07-10T00:30:13;17.00;99.90
36322;DHT22;23564;48.290;11.460;2022-07-10T00:32:39;17.00;99.90
36322;DHT22;23564;48.290;11.460;2022-07-10T00:35:06;17.00;99.90
36322;DHT22;23564;48.290;11.460;2022-07-10T00:37:32;17.00;99.90
36322;DHT22;23564;48.290;11.460;2022-07-10T00:39:58;17.00;99.90
36322;DHT22;23564;48.290;11.460;2022-07-10T00:42:25;16.80;99.90
36322;DHT22;23564;48.290;11.460;2022-07-10T00:44:51;16.80;99.90
36322;DHT22;23564;48.290;11.460;2022-07-10T00:47:17;16.70;99.90
36322;DHT22;23564;48.290;11.460;2022-07-10T00:49:45;16.60;99.90
36322;DHT22;23564;48.290;11.460;2022-07-10T00:52:14;16.50;99.90
36322;DHT22;23564;48.290;11.460;2022-07-10T00:54:43;16.50;99.90
36322;DHT22;23564;48.290;11.460;2022-07-10T00:57:09;16.40;99.90
36322;DHT22;23564;48.290;11.460;2022-07-10T00:59:35;16.40;99.90
36322;DHT22;23564;48.290;11.460;2022-07-10T01:02:02;16.40;99.90
36322;DHT22;23564;48.290;11.460;2022-07-10T01:04:28;16.40;99.90
36322;DHT22;23564;48.290;11.460;2022-07-10T01:06:54;16.40;99.90
36322;DHT22;23564;48.290;11.460;2022-07-10T01:09:20;16.40;99.90
36322;DHT22;23564;48.290;11.460;2022-07-10T01:11:45;16.50;99.90
36322;DHT22;23564;48.290;11.460;2022-07-10T01:14:11;16.50;99.90
36322;DHT22;23564;48.290;11.460;2022-07-10T01:16:37;16.50;99.90
36322;DHT22;23564;48.290;11.460;2022-07-10T01:19:03;16.50;99.90
36322;DHT22;23564;48.290;11.460;2022-07-10T01:21:30;16.50;99.90
36322;DHT22;23564;48.290;11.460;2022-07-10T01:23:57;16.40;99.90
36322;DHT22;23564;48.290;11.460;2022-07-10T01:26:23;16.50;99.90
36322;DHT22;23564;48.290;11.460;2022-07-10T01:28:53;16.40;99.90
36322;DHT22;23564;48.290;11.460;2022-07-10T01:31:24;16.40;99.90
36322;DHT22;23564;48.290;11.460;2022-07-10T01:33:50;16.40;99.90
36322;DHT22;23564;48.290;11.460;2022-07-10T01:36:16;16.40;99.90
36322;DHT22;23564;48.290;11.460;2022-07-10T01:38:43;16.40;99.90
36322;DHT22;23564;48.290;11.460;2022-07-10T01:41:09;16.40;99.90
36322;DHT22;23564;48.290;11.460;2022-07-10T01:43:35;16.40;99.90
36322;DHT22;23564;48.290;11.460;2022-07-10T01:46:04;16.40;99.90
36322;DHT22;23564;48.290;11.460;2022-07-10T01:48:30;16.40;99.90
36322;DHT22;23564;48.290;11.460;2022-07-10T01:50:56;16.40;99.90
36322;DHT22;23564;48.290;11.460;2022-07-10T01:53:22;16.40;99.90
36322;DHT22;23564;48.290;11.460;2022-07-10T01:55:48;16.30;99.90
36322;DHT22;23564;48.290;11.460;2022-07-10T01:58:14;16.30;99.90
36322;DHT22;23564;48.290;11.460;2022-07-10T02:00:39;16.30;99.90
36322;DHT22;23564;48.290;11.460;2022-07-10T02:03:05;16.30;99.90
36322;DHT22;23564;48.290;11.460;2022-07-10T02:05:49;16.30;99.90
36322;DHT22;23564;48.290;11.460;2022-07-10T02:08:15;16.20;99.90
36322;DHT22;23564;48.290;11.460;2022-07-10T02:10:40;16.20;99.90
36322;DHT22;23564;48.290;11.460;2022-07-10T02:13:06;16.00;99.90
36322;DHT22;23564;48.290;11.460;2022-07-10T02:15:32;16.00;99.90
36322;DHT22;23564;48.290;11.460;2022-07-10T02:17:57;15.90;99.90
36322;DHT22;23564;48.290;11.460;2022-07-10T02:20:23;15.80;99.90
36322;DHT22;23564;48.290;11.460;2022-07-10T02:22:49;15.80;99.90
36322;DHT22;23564;48.290;11.460;2022-07-10T02:25:14;15.70;99.90
36322;DHT22;23564;48.290;11.460;2022-07-10T02:27:40;15.70;99.90
36322;DHT22;23564;48.290;11.460;2022-07-10T02:30:06;15.70;99.90
36322;DHT22;23564;48.290;11.460;2022-07-10T02:32:32;15.70;99.90
36322;DHT22;23564;48.290;11.460;2022-07-10T02:34:57;15.70;99.90
36322;DHT22;23564;48.290;11.460;2022-07-10T02:37:23;15.60;99.90
36322;DHT22;23564;48.290;11.460;2022-07-10T02:39:48;15.60;99.90
36322;DHT22;23564;48.290;11.460;2022-07-10T02:42:14;15.60;99.90
36322;DHT22;23564;48.290;11.460;2022-07-10T02:44:39;15.50;99.90
36322;DHT22;23564;48.290;11.460;2022-07-10T02:47:05;15.50;99.90
36322;DHT22;23564;48.290;11.460;2022-07-10T02:49:30;15.40;99.90
36322;DHT22;23564;48.290;11.460;2022-07-10T02:51:56;15.40;99.90
36322;DHT22;23564;48.290;11.460;2022-07-10T02:54:23;15.30;99.90
36322;DHT22;23564;48.290;11.460;2022-07-10T02:56:49;15.30;99.90
36322;DHT22;23564;48.290;11.460;2022-07-10T02:59:14;15.20;99.90
36322;DHT22;23564;48.290;11.460;2022-07-10T03:01:40;15.20;99.90
36322;DHT22;23564;48.290;11.460;2022-07-10T03:04:06;15.20;99.90
36322;DHT22;23564;48.290;11.460;2022-07-10T03:06:32;15.20;99.90
36322;DHT22;23564;48.290;11.460;2022-07-10T03:08:58;15.20;99.90
36322;DHT22;23564;48.290;11.460;2022-07-10T03:11:23;15.10;99.90
36322;DHT22;23564;48.290;11.460;2022-07-10T03:13:49;15.10;99.90
36322;DHT22;23564;48.290;11.460;2022-07-10T03:16:15;15.10;99.90
36322;DHT22;23564;48.290;11.460;2022-07-10T03:18:41;15.10;99.90
36322;DHT22;23564;48.290;11.460;2022-07-10T03:21:06;15.10;99.90
36322;DHT22;23564;48.290;11.460;2022-07-10T03:23:32;15.10;99.90
36322;DHT22;23564;48.290;11.460;2022-07-10T03:25:57;15.00;99.90
36322;DHT22;23564;48.290;11.460;2022-07-10T03:28:23;15.00;99.90
36322;DHT22;23564;48.290;11.460;2022-07-10T03:30:48;15.00;99.90
36322;DHT22;23564;48.290;11.460;2022-07-10T03:33:14;15.00;99.90
36322;DHT22;23564;48.290;11.460;2022-07-10T03:35:40;15.00;99.90
36322;DHT22;23564;48.290;11.460;2022-07-10T03:38:05;15.00;99.90
36322;DHT22;23564;48.290;11.460;2022-07-10T03:40:31;15.00;99.90
36322;DHT22;23564;48.290;11.460;2022-07-10T03:42:56;15.00;99.90
36322;DHT22;23564;48.290;11.460;2022-07-10T03:45:22;15.00;99.90
36322;DHT22;23564;48.290;11.460;2022-07-10T03:47:47;15.00;99.90
36322;DHT22;23564;48.290;11.460;2022-07-10T03:50:13;15.00;99.90
36322;DHT22;23564;48.290;11.460;2022-07-10T03:52:39;15.00;99.90
36322;DHT22;23564;48.290;11.460;2022-07-10T03:55:04;15.00;99.90
36322;DHT22;23564;48.290;11.460;2022-07-10T03:57:30;15.00;99.90
36322;DHT22;23564;48.290;11.460;2022-07-10T04:00:14;15.00;99.90
36322;DHT22;23564;48.290;11.460;2022-07-10T04:02:40;15.00;99.90
36322;DHT22;23564;48.290;11.460;2022-07-10T04:05:07;15.00;99.90
36322;DHT22;23564;48.290;11.460;2022-07-10T04:07:33;15.00;99.90
36322;DHT22;23564;48.290;11.460;2022-07-10T04:09:59;15.00;99.90
36322;DHT22;23564;48.290;11.460;2022-07-10T04:12:25;15.00;99.90
36322;DHT22;23564;48.290;11.460;2022-07-10T04:14:50;15.10;99.90
36322;DHT22;23564;48.290;11.460;2022-07-10T04:17:17;15.20;99.90
36322;DHT22;23564;48.290;11.460;2022-07-10T04:19:43;15.30;99.90
36322;DHT22;23564;48.290;11.460;2022-07-10T04:22:08;15.30;99.90
36322;DHT22;23564;48.290;11.460;2022-07-10T04:24:34;15.30;99.90
36322;DHT22;23564;48.290;11.460;2022-07-10T04:27:00;15.40;99.90
36322;DHT22;23564;48.290;11.460;2022-07-10T04:29:26;15.40;99.90
36322;DHT22;23564;48.290;11.460;2022-07-10T04:31:52;15.40;99.90
36322;DHT22;23564;48.290;11.460;2022-07-10T04:34:18;15.50;99.90
36322;DHT22;23564;48.290;11.460;2022-07-10T04:36:43;15.50;99.90
36322;DHT22;23564;48.290;11.460;2022-07-10T04:39:09;15.70;99.90
36322;DHT22;23564;48.290;11.460;2022-07-10T04:41:34;15.70;99.90
36322;DHT22;23564;48.290;11.460;2022-07-10T04:44:00;15.80;99.90
36322;DHT22;23564;48.290;11.460;2022-07-10T04:46:26;15.80;99.90
36322;DHT22;23564;48.290;11.460;2022-07-10T04:48:52;15.90;99.90
36322;DHT22;23564;48.290;11.460;2022-07-10T04:51:17;15.90;99.90
36322;DHT22;23564;48.290;11.460;2022-07-10T04:53:43;15.90;99.90
36322;DHT22;23564;48.290;11.460;2022-07-10T04:56:09;16.00;99.90
36322;DHT22;23564;48.290;11.460;2022-07-10T04:58:34;15.90;99.90
36322;DHT22;23564;48.290;11.460;2022-07-10T05:01:00;16.00;99.90
36322;DHT22;23564;48.290;11.460;2022-07-10T05:03:28;16.00;99.90
36322;DHT22;23564;48.290;11.460;2022-07-10T05:05:53;16.00;99.90
36322;DHT22;23564;48.290;11.460;2022-07-10T05:08:19;16.10;99.90
36322;DHT22;23564;48.290;11.460;2022-07-10T05:10:45;16.10;99.90
36322;DHT22;23564;48.290;11.460;2022-07-10T05:13:11;16.10;99.90
36322;DHT22;23564;48.290;11.460;2022-07-10T05:15:38;16.20;99.90
36322;DHT22;23564;48.290;11.460;2022-07-10T05:18:03;16.20;99.90
36322;DHT22;23564;48.290;11.460;2022-07-10T05:20:29;16.40;99.90
36322;DHT22;23564;48.290;11.460;2022-07-10T05:22:55;16.40;99.90
36322;DHT22;23564;48.290;11.460;2022-07-10T05:25:21;16.40;99.90
36322;DHT22;23564;48.290;11.460;2022-07-10T05:27:47;16.20;99.90
36322;DHT22;23564;48.290;11.460;2022-07-10T05:30:13;16.20;99.90
36322;DHT22;23564;48.290;11.460;2022-07-10T05:32:43;16.00;99.90
36322;DHT22;23564;48.290;11.460;2022-07-10T05:35:09;16.00;99.90
36322;DHT22;23564;48.290;11.460;2022-07-10T05:37:34;15.90;99.90
36322;DHT22;23564;48.290;11.460;2022-07-10T05:40:00;15.80;99.90
36322;DHT22;23564;48.290;11.460;2022-07-10T05:42:25;15.80;99.90
36322;DHT22;23564;48.290;11.460;2022-07-10T05:44:51;15.90;99.90
36322;DHT22;23564;48.290;11.460;2022-07-10T05:47:17;15.90;99.90
36322;DHT22;23564;48.290;11.460;2022-07-10T05:49:42;16.00;99.90
36322;DHT22;23564;48.290;11.460;2022-07-10T05:52:08;15.90;99.90
36322;DHT22;23564;48.290;11.460;2022-07-10T05:54:33;16.00;99.90
36322;DHT22;23564;48.290;11.460;2022-07-10T05:56:59;16.10;99.90
36322;DHT22;23564;48.290;11.460;2022-07-10T05:59:24;16.10;99.90
36322;DHT22;23564;48.290;11.460;2022-07-10T06:01:50;16.20;99.90
36322;DHT22;23564;48.290;11.460;2022-07-10T06:04:16;16.10;99.90
36322;DHT22;23564;48.290;11.460;2022-07-10T06:06:41;16.10;99.90
36322;DHT22;23564;48.290;11.460;2022-07-10T06:09:07;16.10;99.90
36322;DHT22;23564;48.290;11.460;2022-07-10T06:11:32;16.10;99.90
36322;DHT22;23564;48.290;11.460;2022-07-10T06:13:59;16.00;99.90
36322;DHT22;23564;48.290;11.460;2022-07-10T06:16:25;15.80;99.90
36322;DHT22;23564;48.290;11.460;2022-07-10T06:18:50;15.70;99.90
36322;DHT22;23564;48.290;11.460;2022-07-10T06:21:16;15.80;99.90
36322;DHT22;23564;48.290;11.460;2022-07-10T06:23:47;15.90;99.90
36322;DHT22;23564;48.290;11.460;2022-07-10T06:26:12;16.00;99.90
36322;DHT22;23564;48.290;11.460;2022-07-10T06:28:38;16.10;99.90
36322;DHT22;23564;48.290;11.460;2022-07-10T06:31:04;16.10;99.90
36322;DHT22;23564;48.290;11.460;2022-07-10T06:33:30;16.30;99.90
36322;DHT22;23564;48.290;11.460;2022-07-10T06:35:57;16.40;99.90
36322;DHT22;23564;48.290;11.460;2022-07-10T06:38:23;16.40;99.90
36322;DHT22;23564;48.290;11.460;2022-07-10T06:40:49;16.30;99.90
36322;DHT22;23564;48.290;11.460;2022-07-10T06:43:15;16.30;99.90
36322;DHT22;23564;48.290;11.460;2022-07-10T06:45:41;16.20;99.90
36322;DHT22;23564;48.290;11.460;2022-07-10T06:48:07;16.20;99.90
36322;DHT22;23564;48.290;11.460;2022-07-10T06:50:33;16.20;99.90
36322;DHT22;23564;48.290;11.460;2022-07-10T06:53:00;16.40;99.90
36322;DHT22;23564;48.290;11.460;2022-07-10T06:55:26;16.50;99.90
36322;DHT22;23564;48.290;11.460;2022-07-10T06:57:53;16.60;99.90
36322;DHT22;23564;48.290;11.460;2022-07-10T07:00:18;16.70;99.90
36322;DHT22;23564;48.290;11.460;2022-07-10T07:02:44;16.80;99.90
36322;DHT22;23564;48.290;11.460;2022-07-10T07:05:10;17.00;99.90
36322;DHT22;23564;48.290;11.460;2022-07-10T07:07:36;17.10;99.90
36322;DHT22;23564;48.290;11.460;2022-07-10T07:10:03;17.00;99.90
36322;DHT22;23564;48.290;11.460;2022-07-10T07:12:29;17.10;99.90
36322;DHT22;23564;48.290;11.460;2022-07-10T07:14:54;17.00;99.90
36322;DHT22;23564;48.290;11.460;2022-07-10T07:17:20;16.90;99.90
36322;DHT22;23564;48.290;11.460;2022-07-10T07:20:00;16.90;99.90
36322;DHT22;23564;48.290;11.460;2022-07-10T07:22:44;16.90;99.90
36322;DHT22;23564;48.290;11.460;2022-07-10T07:25:28;16.90;99.90
36322;DHT22;23564;48.290;11.460;2022-07-10T07:27:54;16.80;99.90
36322;DHT22;23564;48.290;11.460;2022-07-10T07:30:19;16.90;99.90
36322;DHT22;23564;48.290;11.460;2022-07-10T07:32:46;17.10;99.90
36322;DHT22;23564;48.290;11.460;2022-07-10T07:35:14;17.10;99.90
36322;DHT22;23564;48.290;11.460;2022-07-10T07:37:45;17.30;99.90
36322;DHT22;23564;48.290;11.460;2022-07-10T07:40:16;17.30;99.90
36322;DHT22;23564;48.290;11.460;2022-07-10T07:42:42;17.30;99.90
36322;DHT22;23564;48.290;11.460;2022-07-10T07:45:09;17.20;99.90
36322;DHT22;23564;48.290;11.460;2022-07-10T07:47:51;17.20;99.90
36322;DHT22;23564;48.290;11.460;2022-07-10T07:50:20;17.10;99.90
36322;DHT22;23564;48.290;11.460;2022-07-10T07:52:47;17.20;99.90
36322;DHT22;23564;48.290;11.460;2022-07-10T07:55:14;17.40;99.90
36322;DHT22;23564;48.290;11.460;2022-07-10T07:57:40;17.60;99.90
36322;DHT22;23564;48.290;11.460;2022-07-10T08:00:07;17.70;99.90
36322;DHT22;23564;48.290;11.460;2022-07-10T08:02:34;17.60;99.90
36322;DHT22;23564;48.290;11.460;2022-07-10T08:04:59;17.40;99.90
36322;DHT22;23564;48.290;11.460;2022-07-10T08:07:43;17.40;99.90
36322;DHT22;23564;48.290;11.460;2022-07-10T08:10:11;17.30;99.90
36322;DHT22;23564;48.290;11.460;2022-07-10T08:12:37;17.30;99.90
36322;DHT22;23564;48.290;11.460;2022-07-10T08:15:06;17.50;99.90
36322;DHT22;23564;48.290;11.460;2022-07-10T08:17:31;17.40;99.90
36322;DHT22;23564;48.290;11.460;2022-07-10T08:19:57;17.30;99.90
36322;DHT22;23564;48.290;11.460;2022-07-10T08:22:23;16.90;99.90
36322;DHT22;23564;48.290;11.460;2022-07-10T08:24:48;16.70;99.90
36322;DHT22;23564;48.290;11.460;2022-07-10T08:27:14;16.60;99.90
36322;DHT22;23564;48.290;11.460;2022-07-10T08:29:39;16.70;99.90
36322;DHT22;23564;48.290;11.460;2022-07-10T08:32:06;16.80;99.90
36322;DHT22;23564;48.290;11.460;2022-07-10T08:34:31;17.10;99.90
36322;DHT22;23564;48.290;11.460;2022-07-10T08:36:58;17.20;99.90
36322;DHT22;23564;48.290;11.460;2022-07-10T08:39:24;17.20;99.90
36322;DHT22;23564;48.290;11.460;2022-07-10T08:41:50;17.20;99.90
36322;DHT22;23564;48.290;11.460;2022-07-10T08:44:19;17.10;99.90
36322;DHT22;23564;48.290;11.460;2022-07-10T08:46:45;17.20;99.90
36322;DHT22;23564;48.290;11.460;2022-07-10T08:49:11;17.20;99.90
36322;DHT22;23564;48.290;11.460;2022-07-10T08:52:11;17.20;99.90
36322;DHT22;23564;48.290;11.460;2022-07-10T08:54:38;17.20;99.90
36322;DHT22;23564;48.290;11.460;2022-07-10T08:57:04;17.50;99.90
36322;DHT22;23564;48.290;11.460;2022-07-10T08:59:31;17.70;99.90
36322;DHT22;23564;48.290;11.460;2022-07-10T09:01:57;17.80;99.90
36322;DHT22;23564;48.290;11.460;2022-07-10T09:04:24;17.70;99.90
36322;DHT22;23564;48.290;11.460;2022-07-10T09:06:51;17.70;99.90
36322;DHT22;23564;48.290;11.460;2022-07-10T09:09:17;17.60;99.90
36322;DHT22;23564;48.290;11.460;2022-07-10T09:11:43;17.60;99.90
36322;DHT22;23564;48.290;11.460;2022-07-10T09:14:11;17.60;99.90
36322;DHT22;23564;48.290;11.460;2022-07-10T09:16:42;17.80;99.90
36322;DHT22;23564;48.290;11.460;2022-07-10T09:19:24;17.90;99.90
36322;DHT22;23564;48.290;11.460;2022-07-10T09:21:52;17.80;99.90
36322;DHT22;23564;48.290;11.460;2022-07-10T09:24:18;17.80;99.90
36322;DHT22;23564;48.290;11.460;2022-07-10T09:27:01;17.80;99.90
36322;DHT22;23564;48.290;11.460;2022-07-10T09:29:29;18.00;99.90
36322;DHT22;23564;48.290;11.460;2022-07-10T09:31:57;18.10;99.90
36322;DHT22;23564;48.290;11.460;2022-07-10T09:34:49;18.10;99.90
36322;DHT22;23564;48.290;11.460;2022-07-10T09:37:39;18.10;99.90
36322;DHT22;23564;48.290;11.460;2022-07-10T09:40:06;17.90;99.90
36322;DHT22;23564;48.290;11.460;2022-07-10T09:42:39;17.80;99.90
36322;DHT22;23564;48.290;11.460;2022-07-10T09:50:34;17.90;99.90
36322;DHT22;23564;48.290;11.460;2022-07-10T09:53:01;18.10;99.90
36322;DHT22;23564;48.290;11.460;2022-07-10T09:55:29;18.20;99.90
36322;DHT22;23564;48.290;11.460;2022-07-10T09:57:56;18.30;99.90
36322;DHT22;23564;48.290;11.460;2022-07-10T10:00:33;18.40;99.90
36322;DHT22;23564;48.290;11.460;2022-07-10T10:03:04;18.40;99.90
36322;DHT22;23564;48.290;11.460;2022-07-10T10:10:40;18.00;99.90
36322;DHT22;23564;48.290;11.460;2022-07-10T10:13:08;18.00;99.90
36322;DHT22;23564;48.290;11.460;2022-07-10T10:15:35;17.90;99.90
36322;DHT22;23564;48.290;11.460;2022-07-10T10:18:02;17.90;99.90
36322;DHT22;23564;48.290;11.460;2022-07-10T10:20:29;18.00;99.90
36322;DHT22;23564;48.290;11.460;2022-07-10T10:23:10;18.20;99.90
36322;DHT22;23564;48.290;11.460;2022-07-10T10:25:37;18.40;99.90
36322;DHT22;23564;48.290;11.460;2022-07-10T10:28:05;18.50;99.90
36322;DHT22;23564;48.290;11.460;2022-07-10T10:30:32;18.40;99.90
36322;DHT22;23564;48.290;11.460;2022-07-10T10:32:58;18.40;99.90
36322;DHT22;23564;48.290;11.460;2022-07-10T10:35:42;18.50;99.90
36322;DHT22;23564;48.290;11.460;2022-07-10T10:38:12;18.50;99.90
36322;DHT22;23564;48.290;11.460;2022-07-10T10:40:38;18.40;99.90
36322;DHT22;23564;48.290;11.460;2022-07-10T10:43:36;18.50;99.90
36322;DHT22;23564;48.290;11.460;2022-07-10T10:46:24;18.60;99.90
36322;DHT22;23564;48.290;11.460;2022-07-10T10:49:05;18.20;99.90
36322;DHT22;23564;48.290;11.460;2022-07-10T10:54:25;18.10;99.90
36322;DHT22;23564;48.290;11.460;2022-07-10T10:57:13;18.30;99.90
36322;DHT22;23564;48.290;11.460;2022-07-10T10:59:54;18.60;99.90
36322;DHT22;23564;48.290;11.460;2022-07-10T11:02:29;18.80;99.90
36322;DHT22;23564;48.290;11.460;2022-07-10T11:13:04;18.70;99.90
36322;DHT22;23564;48.290;11.460;2022-07-10T11:15:31;18.60;99.90
36322;DHT22;23564;48.290;11.460;2022-07-10T11:18:04;18.40;99.90
36322;DHT22;23564;48.290;11.460;2022-07-10T11:20:39;18.30;99.90
36322;DHT22;23564;48.290;11.460;2022-07-10T11:26:13;18.30;99.90
36322;DHT22;23564;48.290;11.460;2022-07-10T11:28:51;18.30;99.90
36322;DHT22;23564;48.290;11.460;2022-07-10T11:31:22;18.40;99.90
36322;DHT22;23564;48.290;11.460;2022-07-10T11:33:50;18.50;99.90
36322;DHT22;23564;48.290;11.460;2022-07-10T11:36:34;18.70;99.90
36322;DHT22;23564;48.290;11.460;2022-07-10T11:39:06;18.80;99.70
36322;DHT22;23564;48.290;11.460;2022-07-10T11:41:33;18.70;99.60
36322;DHT22;23564;48.290;11.460;2022-07-10T11:44:00;18.60;99.90
36322;DHT22;23564;48.290;11.460;2022-07-10T11:46:31;18.70;99.90
36322;DHT22;23564;48.290;11.460;2022-07-10T11:48:57;18.70;99.90
36322;DHT22;23564;48.290;11.460;2022-07-10T11:51:34;18.70;99.90
36322;DHT22;23564;48.290;11.460;2022-07-10T11:54:09;18.70;99.90
36322;DHT22;23564;48.290;11.460;2022-07-10T11:56:48;18.60;99.40
36322;DHT22;23564;48.290;11.460;2022-07-10T11:59:15;18.70;99.90
36322;DHT22;23564;48.290;11.460;2022-07-10T12:01:46;18.80;98.70
36322;DHT22;23564;48.290;11.460;2022-07-10T12:04:14;18.80;99.10
36322;DHT22;23564;48.290;11.460;2022-07-10T12:06:42;18.90;98.60
36322;DHT22;23564;48.290;11.460;2022-07-10T12:09:11;19.10;98.60
36322;DHT22;23564;48.290;11.460;2022-07-10T12:11:37;19.30;98.90
36322;DHT22;23564;48.290;11.460;2022-07-10T12:14:20;19.50;99.00
36322;DHT22;23564;48.290;11.460;2022-07-10T12:16:50;19.70;97.50
36322;DHT22;23564;48.290;11.460;2022-07-10T12:19:23;19.70;97.40
36322;DHT22;23564;48.290;11.460;2022-07-10T12:21:49;19.70;97.90
36322;DHT22;23564;48.290;11.460;2022-07-10T12:24:19;19.80;97.50
36322;DHT22;23564;48.290;11.460;2022-07-10T12:26:49;20.00;96.80
36322;DHT22;23564;48.290;11.460;2022-07-10T12:31:44;20.00;96.70
36322;DHT22;23564;48.290;11.460;2022-07-10T12:34:11;19.90;96.50
36322;DHT22;23564;48.290;11.460;2022-07-10T12:36:43;19.70;96.40
36322;DHT22;23564;48.290;11.460;2022-07-10T12:39:10;19.60;96.70
36322;DHT22;23564;48.290;11.460;2022-07-10T12:42:02;19.50;96.50
36322;DHT22;23564;48.290;11.460;2022-07-10T12:44:45;19.50;97.00
36322;DHT22;23564;48.290;11.460;2022-07-10T12:47:15;19.50;96.70
36322;DHT22;23564;48.290;11.460;2022-07-10T12:50:01;19.50;97.20
36322;DHT22;23564;48.290;11.460;2022-07-10T12:52:38;19.40;96.30
36322;DHT22;23564;48.290;11.460;2022-07-10T12:55:19;19.30;96.40
36322;DHT22;23564;48.290;11.460;2022-07-10T12:57:57;19.30;96.60
36322;DHT22;23564;48.290;11.460;2022-07-10T13:00:25;19.30;96.70
36322;DHT22;23564;48.290;11.460;2022-07-10T13:03:03;19.50;96.20
36322;DHT22;23564;48.290;11.460;2022-07-10T13:10:38;19.40;95.70
36322;DHT22;23564;48.290;11.460;2022-07-10T13:13:04;19.30;96.50
36322;DHT22;23564;48.290;11.460;2022-07-10T13:15:30;19.30;96.50
36322;DHT22;23564;48.290;11.460;2022-07-10T13:17:57;19.30;96.40
36322;DHT22;23564;48.290;11.460;2022-07-10T13:20:23;19.30;96.40
36322;DHT22;23564;48.290;11.460;2022-07-10T13:22:48;19.30;96.00
36322;DHT22;23564;48.290;11.460;2022-07-10T13:25:14;19.40;96.50
36322;DHT22;23564;48.290;11.460;2022-07-10T13:27:40;19.40;95.70
36322;DHT22;23564;48.290;11.460;2022-07-10T13:30:07;19.40;94.90
36322;DHT22;23564;48.290;11.460;2022-07-10T13:32:33;19.30;95.10
36322;DHT22;23564;48.290;11.460;2022-07-10T13:34:59;19.30;95.30
36322;DHT22;23564;48.290;11.460;2022-07-10T13:37:25;19.20;95.20
36322;DHT22;23564;48.290;11.460;2022-07-10T13:39:50;19.20;94.90
36322;DHT22;23564;48.290;11.460;2022-07-10T13:42:16;19.20;95.40
36322;DHT22;23564;48.290;11.460;2022-07-10T13:44:42;19.10;95.10
36322;DHT22;23564;48.290;11.460;2022-07-10T13:47:07;19.10;95.40
36322;DHT22;23564;48.290;11.460;2022-07-10T13:49:33;19.10;95.50
36322;DHT22;23564;48.290;11.460;2022-07-10T13:51:59;19.20;95.40
36322;DHT22;23564;48.290;11.460;2022-07-10T13:54:25;19.30;95.00
36322;DHT22;23564;48.290;11.460;2022-07-10T13:56:50;19.30;94.50
36322;DHT22;23564;48.290;11.460;2022-07-10T13:59:16;19.30;94.80
36322;DHT22;23564;48.290;11.460;2022-07-10T14:01:42;19.30;94.70
36322;DHT22;23564;48.290;11.460;2022-07-10T14:04:07;19.30;94.80
36322;DHT22;23564;48.290;11.460;2022-07-10T14:06:33;19.40;95.00
36322;DHT22;23564;48.290;11.460;2022-07-10T14:08:59;19.50;94.60
36322;DHT22;23564;48.290;11.460;2022-07-10T14:11:24;19.60;94.70
36322;DHT22;23564;48.290;11.460;2022-07-10T14:13:50;19.80;93.90
36322;DHT22;23564;48.290;11.460;2022-07-10T14:16:16;19.80;93.70
36322;DHT22;23564;48.290;11.460;2022-07-10T14:18:41;19.80;94.10
36322;DHT22;23564;48.290;11.460;2022-07-10T14:21:10;19.90;94.40
36322;DHT22;23564;48.290;11.460;2022-07-10T14:23:38;20.10;93.90
36322;DHT22;23564;48.290;11.460;2022-07-10T14:26:07;20.20;92.90
36322;DHT22;23564;48.290;11.460;2022-07-10T14:28:33;20.20;92.90
36322;DHT22;23564;48.290;11.460;2022-07-10T14:31:01;20.10;92.80
36322;DHT22;23564;48.290;11.460;2022-07-10T14:33:29;20.10;92.80
36322;DHT22;23564;48.290;11.460;2022-07-10T14:35:55;20.20;92.90
36322;DHT22;23564;48.290;11.460;2022-07-10T14:38:21;20.30;92.90
36322;DHT22;23564;48.290;11.460;2022-07-10T14:40:46;20.30;92.80
36322;DHT22;23564;48.290;11.460;2022-07-10T14:43:12;20.50;93.20
36322;DHT22;23564;48.290;11.460;2022-07-10T14:45:38;20.60;92.90
36322;DHT22;23564;48.290;11.460;2022-07-10T14:48:03;20.70;92.80
36322;DHT22;23564;48.290;11.460;2022-07-10T14:50:29;20.80;92.40
36322;DHT22;23564;48.290;11.460;2022-07-10T14:52:55;20.90;91.50
36322;DHT22;23564;48.290;11.460;2022-07-10T14:55:20;20.90;92.60
36322;DHT22;23564;48.290;11.460;2022-07-10T14:57:46;21.00;91.60
36322;DHT22;23564;48.290;11.460;2022-07-10T15:00:14;21.10;91.10
36322;DHT22;23564;48.290;11.460;2022-07-10T15:02:39;20.90;90.90
36322;DHT22;23564;48.290;11.460;2022-07-10T15:05:05;20.80;91.60
36322;DHT22;23564;48.290;11.460;2022-07-10T15:07:31;20.80;91.00
36322;DHT22;23564;48.290;11.460;2022-07-10T15:09:57;21.00;91.50
36322;DHT22;23564;48.290;11.460;2022-07-10T15:12:22;21.00;90.60
36322;DHT22;23564;48.290;11.460;2022-07-10T15:14:48;20.90;90.90
36322;DHT22;23564;48.290;11.460;2022-07-10T15:17:14;20.60;90.90
36322;DHT22;23564;48.290;11.460;2022-07-10T15:19:39;20.30;91.50
36322;DHT22;23564;48.290;11.460;2022-07-10T15:22:05;20.40;91.60
36322;DHT22;23564;48.290;11.460;2022-07-10T15:24:30;20.60;91.30
36322;DHT22;23564;48.290;11.460;2022-07-10T15:26:56;20.80;91.50
36322;DHT22;23564;48.290;11.460;2022-07-10T15:29:22;20.90;91.10
36322;DHT22;23564;48.290;11.460;2022-07-10T15:31:51;21.00;91.00
36322;DHT22;23564;48.290;11.460;2022-07-10T15:34:17;20.90;90.70
36322;DHT22;23564;48.290;11.460;2022-07-10T15:36:43;20.90;90.80
36322;DHT22;23564;48.290;11.460;2022-07-10T15:39:12;20.70;90.30
36322;DHT22;23564;48.290;11.460;2022-07-10T15:41:38;20.10;91.20
36322;DHT22;23564;48.290;11.460;2022-07-10T15:44:05;19.90;91.90
36322;DHT22;23564;48.290;11.460;2022-07-10T15:46:31;20.10;92.30
36322;DHT22;23564;48.290;11.460;2022-07-10T15:48:57;20.50;91.90
36322;DHT22;23564;48.290;11.460;2022-07-10T15:51:24;20.80;91.20